Time;durP1;ratioP1;P1;durP2;ratioP2;P2;SDS_P1;SDS_P2;PMS_P1;PMS_P2;Temp;Humidity;BMP_temperature;BMP_pressure;BME280_temperature;BME280_humidity;BME280_pressure;Samples;Min_cycle;Max_cycle;Signal;HPM_P1;HPM_P2
2022/04/13 00:00:56;;;;;;;7.55;4.50;;;;;;;5.02;72.25;99586.56;5030713;28;20029;-52
2022/04/13 00:03:22;;;;;;;5.35;4.28;;;;;;;5.01;72.31;99594.63;5030881;28;20462;-51
2022/04/13 00:05:48;;;;;;;7.00;4.95;;;;;;;4.97;72.68;99588.66;5031647;28;20041;-55
2022/04/13 00:08:14;;;;;;;5.80;4.50;;;;;;;4.73;72.58;99553.88;5030907;28;20033;-53
2022/04/13 00:10:40;;;;;;;6.15;4.70;;;;;;;4.68;72.76;99550.63;5030810;28;20083;-52
2022/04/13 00:13:06;;;;;;;5.85;4.30;;;;;;;4.94;72.89;99593.28;5031039;28;20413;-54
2022/04/13 00:15:32;;;;;;;10.25;5.20;;;;;;;4.86;72.12;99578.69;5031089;28;20034;-53
2022/04/13 00:17:57;;;;;;;6.78;4.63;;;;;;;4.93;72.54;99586.25;5030437;28;20450;-54
2022/04/13 00:20:23;;;;;;;6.32;4.53;;;;;;;4.87;72.40;99582.22;5030500;28;20104;-54
2022/04/13 00:22:49;;;;;;;6.20;4.57;;;;;;;4.86;72.45;99591.13;5031190;28;20052;-52
2022/04/13 00:25:14;;;;;;;5.90;4.30;;;;;;;4.87;72.39;99591.00;5031356;28;20033;-54
2022/04/13 00:27:40;;;;;;;7.40;4.63;;;;;;;4.88;72.85;99589.22;5030809;28;20625;-50
2022/04/13 00:30:06;;;;;;;6.35;4.90;;;;;;;4.92;72.56;99588.06;5030406;28;20033;-51
2022/04/13 00:32:33;;;;;;;6.07;4.78;;;;;;;4.93;72.23;99586.25;5030857;28;20061;-52
2022/04/13 00:35:02;;;;;;;6.85;5.20;;;;;;;4.67;72.13;99549.78;5030877;28;20037;-48
2022/04/13 00:37:28;;;;;;;5.85;4.78;;;;;;;4.93;72.76;99586.25;5030326;28;20033;-53
2022/04/13 00:39:54;;;;;;;6.07;4.88;;;;;;;4.86;72.60;99583.16;5030414;28;20034;-54
2022/04/13 00:42:20;;;;;;;7.53;5.20;;;;;;;4.74;72.52;99561.72;5030954;28;20037;-54
2022/04/13 00:44:45;;;;;;;6.90;4.95;;;;;;;4.88;72.33;99586.56;5031197;28;20040;-57
2022/04/13 00:47:12;;;;;;;7.35;5.13;;;;;;;4.84;72.50;99607.09;5029447;28;20029;-50
2022/04/13 00:49:38;;;;;;;8.02;5.20;;;;;;;4.83;72.89;99600.09;5030593;28;20029;-52
2022/04/13 00:52:05;;;;;;;6.93;4.85;;;;;;;4.63;72.41;99558.00;5029721;28;20075;-58
2022/04/13 00:54:32;;;;;;;6.78;4.78;;;;;;;4.88;72.34;99597.19;5030556;28;20144;-52
2022/04/13 00:57:00;;;;;;;6.45;4.57;;;;;;;4.89;72.63;99598.88;5030074;28;20095;-55
2022/04/13 00:59:27;;;;;;;7.78;5.05;;;;;;;4.92;72.46;99596.03;5030310;28;20040;-55
2022/04/13 01:01:58;;;;;;;6.07;4.70;;;;;;;4.98;72.94;99600.13;5030499;28;20042;-53
2022/04/13 01:04:27;;;;;;;7.32;5.43;;;;;;;4.98;72.22;99598.31;5029483;28;20108;-51
2022/04/13 01:06:53;;;;;;;7.55;5.15;;;;;;;4.89;72.24;99588.28;5029989;28;20106;-50
2022/04/13 01:09:19;;;;;;;6.93;4.78;;;;;;;4.97;72.10;99595.75;5030285;28;20037;-50
2022/04/13 01:11:45;;;;;;;7.32;5.47;;;;;;;4.87;72.12;99582.22;5030142;28;20029;-53
2022/04/13 01:14:10;;;;;;;6.75;5.10;;;;;;;4.85;72.16;99600.03;5030419;28;20092;-53
2022/04/13 01:16:39;;;;;;;8.32;4.90;;;;;;;4.77;72.40;99591.66;5029394;28;20087;-54
2022/04/13 01:19:06;;;;;;;6.90;4.90;;;;;;;4.76;72.58;99580.22;5029922;28;20037;-51
2022/04/13 01:21:41;;;;;;;6.82;4.82;;;;;;;4.88;72.54;99595.34;5030171;28;20033;-54
2022/04/13 01:24:07;;;;;;;6.88;5.22;;;;;;;4.61;72.74;99555.47;5030255;28;20117;-50
2022/04/13 01:26:33;;;;;;;7.18;4.47;;;;;;;4.84;72.43;99598.31;5029877;28;20131;-54
2022/04/13 01:28:58;;;;;;;6.28;4.45;;;;;;;4.91;72.34;99599.63;5029137;28;20026;-54
2022/04/13 01:31:24;;;;;;;7.82;4.85;;;;;;;4.89;71.90;99588.28;5029717;28;20051;-53
2022/04/13 01:33:49;;;;;;;7.22;4.70;;;;;;;4.99;72.32;99604.47;5030126;28;20038;-52
2022/04/13 01:36:16;;;;;;;6.70;4.82;;;;;;;4.92;71.66;99582.78;5011952;28;20587;-54
2022/04/13 01:38:41;;;;;;;8.75;4.65;;;;;;;4.96;72.17;99592.25;5030230;28;20033;-56
2022/04/13 01:41:07;;;;;;;7.07;4.55;;;;;;;4.91;71.65;99598.78;5030258;28;20030;-52
2022/04/13 01:43:32;;;;;;;6.35;4.82;;;;;;;4.88;72.08;99599.84;5030258;28;20064;-54
2022/04/13 01:45:58;;;;;;;6.45;4.78;;;;;;;4.83;72.13;99601.91;5030518;28;20029;-52
2022/04/13 01:48:24;;;;;;;6.97;4.97;;;;;;;4.78;72.35;99603.97;5030373;28;20041;-53
2022/04/13 01:50:50;;;;;;;9.60;5.28;;;;;;;4.80;72.57;99612.69;5030563;28;20091;-53
2022/04/13 01:53:16;;;;;;;6.03;5.00;;;;;;;4.72;71.99;99592.78;5030412;28;20147;-51
2022/04/13 01:55:41;;;;;;;7.07;5.07;;;;;;;4.79;72.13;99611.84;5029953;28;20411;-54
2022/04/13 01:58:07;;;;;;;8.40;5.50;;;;;;;4.79;72.63;99601.22;5031517;28;20085;-53
2022/04/13 02:00:33;;;;;;;7.28;5.07;;;;;;;4.81;72.36;99603.78;5034135;28;20119;-52
2022/04/13 02:02:59;;;;;;;6.72;4.85;;;;;;;4.81;72.30;99609.09;5033837;28;20037;-54
2022/04/13 02:05:25;;;;;;;6.80;4.60;;;;;;;4.76;72.40;99608.50;5032192;28;20090;-53
2022/04/13 02:07:51;;;;;;;6.18;4.95;;;;;;;4.71;72.62;99609.66;5033849;28;20033;-55
2022/04/13 02:10:17;;;;;;;5.75;4.47;;;;;;;4.73;72.20;99613.06;5033685;28;20021;-56
2022/04/13 02:12:44;;;;;;;5.65;4.25;;;;;;;4.56;72.62;99586.69;5033234;28;20393;-54
2022/04/13 02:15:10;;;;;;;7.43;5.25;;;;;;;4.72;72.01;99611.34;5033438;28;20485;-57
2022/04/13 02:17:38;;;;;;;6.75;4.75;;;;;;;4.66;72.82;99610.84;5032320;28;20044;-56
2022/04/13 02:20:05;;;;;;;8.20;4.68;;;;;;;4.65;72.13;99620.63;5033592;28;20026;-53
2022/04/13 02:22:31;;;;;;;7.63;5.38;;;;;;;4.60;72.26;99617.41;5033103;28;20022;-55
2022/04/13 02:25:00;;;;;;;5.97;4.53;;;;;;;4.63;72.79;99627.81;5032072;28;20330;-56
2022/04/13 02:27:26;;;;;;;5.55;4.40;;;;;;;4.60;72.55;99617.41;5033431;28;20061;-53
2022/04/13 02:29:52;;;;;;;6.13;4.60;;;;;;;4.68;72.51;99623.09;5033914;28;20071;-53
2022/04/13 02:32:17;;;;;;;5.28;3.80;;;;;;;4.69;72.30;99626.59;5049552;28;20049;-56
2022/04/13 02:34:44;;;;;;;5.18;3.95;;;;;;;4.72;72.03;99637.03;5052919;28;20091;-53
2022/04/13 02:37:11;;;;;;;8.27;3.90;;;;;;;4.69;72.42;99638.06;5053116;28;20378;-56
2022/04/13 02:39:36;;;;;;;5.78;4.45;;;;;;;4.73;72.23;99644.03;5053267;28;20036;-53
2022/04/13 02:42:02;;;;;;;5.85;4.10;;;;;;;4.65;72.16;99625.06;5052882;28;20029;-56
2022/04/13 02:44:28;;;;;;;6.03;4.03;;;;;;;4.74;72.20;99635.97;5052774;28;20479;-57
2022/04/13 02:46:53;;;;;;;5.65;4.20;;;;;;;4.72;71.80;99635.22;5053139;28;20108;-53
2022/04/13 02:49:19;;;;;;;5.18;3.90;;;;;;;4.76;71.95;99632.38;5053122;28;20064;-56
2022/04/13 02:51:44;;;;;;;6.80;4.22;;;;;;;4.69;71.55;99650.44;5052719;28;20353;-53
2022/04/13 02:54:10;;;;;;;4.90;4.03;;;;;;;4.66;71.86;99647.97;5052635;28;20032;-59
2022/04/13 02:56:35;;;;;;;5.47;4.22;;;;;;;4.62;72.09;99633.19;5052770;28;20094;-56
2022/04/13 02:59:01;;;;;;;5.53;4.10;;;;;;;4.72;72.12;99643.19;5052956;28;20469;-56
2022/04/13 03:01:26;;;;;;;7.00;4.03;;;;;;;4.76;72.22;99648.28;5052652;28;20028;-56
2022/04/13 03:03:52;;;;;;;6.07;4.28;;;;;;;4.81;71.98;99648.88;5052509;28;20361;-57
2022/04/13 03:06:18;;;;;;;5.93;4.47;;;;;;;4.83;71.77;99649.66;5052270;28;20029;-56
2022/04/13 03:08:45;;;;;;;6.57;4.20;;;;;;;4.79;71.45;99648.97;5052265;28;20037;-54
2022/04/13 03:11:11;;;;;;;5.22;4.28;;;;;;;4.77;71.68;99650.00;5051534;28;20473;-55
2022/04/13 03:13:37;;;;;;;5.40;4.10;;;;;;;4.79;72.08;99653.41;5051695;28;20036;-52
2022/04/13 03:16:03;;;;;;;6.10;4.50;;;;;;;4.84;71.44;99656.66;5051639;28;20492;-54
2022/04/13 03:18:28;;;;;;;6.93;4.60;;;;;;;4.84;71.75;99661.97;5051524;28;20029;-51
2022/04/13 03:20:54;;;;;;;7.35;4.38;;;;;;;4.81;71.67;99649.75;5051971;28;20035;-52
2022/04/13 03:23:19;;;;;;;6.85;4.85;;;;;;;4.82;71.73;99659.41;5051336;28;20448;-54
2022/04/13 03:25:45;;;;;;;6.88;4.45;;;;;;;4.85;71.71;99658.38;5051674;28;20025;-52
2022/04/13 03:28:10;;;;;;;8.68;5.20;;;;;;;4.84;71.32;99664.63;5051483;28;20055;-54
2022/04/13 03:30:36;;;;;;;7.50;5.05;;;;;;;4.84;71.59;99669.94;5050720;28;20041;-50
2022/04/13 03:33:02;;;;;;;7.50;5.05;;;;;;;4.80;71.65;99666.59;5049942;28;20063;-55
2022/04/13 03:35:27;;;;;;;6.93;5.35;;;;;;;4.86;71.57;99670.69;5051561;28;20039;-55
2022/04/13 03:37:53;;;;;;;6.97;5.32;;;;;;;4.89;71.49;99668.69;5051405;28;20021;-51
2022/04/13 03:40:18;;;;;;;8.10;5.38;;;;;;;4.83;71.80;99678.84;5051431;28;20052;-51
2022/04/13 03:42:44;;;;;;;8.75;5.20;;;;;;;4.94;71.44;99679.03;5051261;28;20029;-54
2022/04/13 03:45:13;;;;;;;8.43;5.60;;;;;;;5.04;71.80;99682.00;5051323;28;20036;-54
2022/04/13 03:47:39;;;;;;;7.15;5.13;;;;;;;5.09;71.14;99687.03;5051470;28;20461;-55
2022/04/13 03:50:06;;;;;;;9.95;5.47;;;;;;;5.17;70.95;99682.13;5051175;28;20024;-56
2022/04/13 03:52:33;;;;;;;8.60;5.20;;;;;;;4.99;70.37;99653.06;5051052;28;20508;-54
2022/04/13 03:55:00;;;;;;;6.60;5.05;;;;;;;5.27;71.05;99682.41;5051799;28;20120;-54
2022/04/13 03:57:25;;;;;;;7.07;5.15;;;;;;;5.31;70.60;99684.78;5050551;28;20028;-52
2022/04/13 03:59:51;;;;;;;7.32;5.03;;;;;;;5.37;70.47;99680.06;5050780;28;20036;-53
2022/04/13 04:02:16;;;;;;;6.90;4.80;;;;;;;5.37;69.65;99688.00;5050951;28;20071;-51
2022/04/13 04:04:42;;;;;;;5.95;4.90;;;;;;;5.30;69.64;99685.75;5051398;28;20461;-54
2022/04/13 04:07:08;;;;;;;7.38;5.18;;;;;;;5.29;70.12;99694.63;5051016;28;20369;-57
2022/04/13 04:09:34;;;;;;;7.70;4.78;;;;;;;5.24;70.15;99679.94;5050741;28;20021;-54
2022/04/13 04:12:00;;;;;;;8.07;5.28;;;;;;;5.33;69.76;99697.97;5051356;28;20025;-54
2022/04/13 04:14:25;;;;;;;7.85;5.18;;;;;;;5.31;70.11;99691.88;5051396;28;20428;-55
2022/04/13 04:16:51;;;;;;;6.13;4.88;;;;;;;5.19;69.99;99677.56;5049528;28;20037;-56
2022/04/13 04:19:16;;;;;;;7.53;5.57;;;;;;;5.23;70.11;99683.56;5050416;28;20033;-53
2022/04/13 04:21:42;;;;;;;7.03;4.88;;;;;;;5.02;70.35;99663.50;5048931;28;20314;-55
2022/04/13 04:24:08;;;;;;;8.93;5.35;;;;;;;5.20;70.29;99689.06;5050911;28;20025;-56
2022/04/13 04:26:33;;;;;;;6.65;4.97;;;;;;;5.22;70.43;99690.66;5050165;28;20028;-56
2022/04/13 04:28:59;;;;;;;9.18;5.38;;;;;;;5.15;70.17;99691.97;5050147;28;20465;-55
2022/04/13 04:34:08;;;;;;;11.48;5.13;;;;;;;5.18;70.38;99694.44;5051102;28;20191;-57
2022/04/13 04:36:34;;;;;;;7.50;5.07;;;;;;;5.01;69.74;99663.63;5050809;28;20120;-54
2022/04/13 04:38:59;;;;;;;7.78;5.20;;;;;;;5.01;69.98;99656.50;5050664;28;20036;-55
2022/04/13 04:41:25;;;;;;;7.75;5.00;;;;;;;5.26;69.55;99702.78;5050561;28;20032;-52
2022/04/13 04:43:50;;;;;;;6.43;4.80;;;;;;;5.32;70.18;99709.53;5050898;28;20492;-55
2022/04/13 04:46:16;;;;;;;10.20;6.20;;;;;;;5.32;69.63;99698.91;5050242;28;20037;-52
2022/04/13 04:48:42;;;;;;;7.75;5.40;;;;;;;5.39;69.58;99710.00;5050162;28;20032;-56
2022/04/13 04:51:11;;;;;;;9.90;5.68;;;;;;;5.45;68.94;99714.94;5050514;28;20033;-56
2022/04/13 04:53:37;;;;;;;10.13;5.68;;;;;;;5.42;69.16;99708.00;5049585;28;20117;-57
2022/04/13 04:56:02;;;;;;;7.70;5.55;;;;;;;5.42;69.19;99710.66;5049900;28;20132;-55
2022/04/13 04:58:28;;;;;;;8.70;5.95;;;;;;;5.23;69.17;99679.06;5050252;28;20032;-59
2022/04/13 05:00:53;;;;;;;9.02;5.55;;;;;;;5.37;69.33;99720.72;5050567;28;20041;-58
2022/04/13 05:03:19;;;;;;;7.88;5.18;;;;;;;5.31;69.00;99714.00;5050567;28;20041;-60
2022/04/13 05:05:45;;;;;;;12.13;5.97;;;;;;;5.34;69.23;99718.25;5050247;28;20465;-57
2022/04/13 05:08:11;;;;;;;8.48;5.53;;;;;;;5.37;69.11;99717.22;5050251;28;20029;-56
2022/04/13 05:10:37;;;;;;;8.20;5.90;;;;;;;5.50;68.68;99726.13;5050653;28;20100;-58
2022/04/13 05:13:03;;;;;;;9.27;6.13;;;;;;;5.50;69.16;99730.59;5050341;28;20029;-59
2022/04/13 05:15:28;;;;;;;10.80;6.53;;;;;;;5.57;68.32;99734.59;5048856;28;20036;-57
2022/04/13 05:17:54;;;;;;;11.18;5.72;;;;;;;5.64;68.74;99741.22;5049418;28;20034;-57
2022/04/13 05:20:20;;;;;;;15.55;6.60;;;;;;;5.69;68.53;99733.84;5050002;28;20033;-57
2022/04/13 05:22:46;;;;;;;9.35;6.30;;;;;;;5.80;68.08;99729.66;5050373;28;20495;-60
2022/04/13 05:25:15;;;;;;;9.88;6.18;;;;;;;5.64;67.78;99687.25;5049862;28;20118;-56
2022/04/13 05:27:41;;;;;;;10.82;6.47;;;;;;;5.91;67.59;99732.50;5049026;28;20029;-60
2022/04/13 05:30:08;;;;;;;8.93;5.97;;;;;;;5.99;67.56;99734.66;5048540;28;20033;-58
2022/04/13 05:32:48;;;;;;;12.43;6.97;;;;;;;6.13;67.20;99732.03;5050834;28;20049;-56
2022/04/13 05:35:14;;;;;;;10.65;6.53;;;;;;;6.07;66.61;99744.84;5054062;28;20033;-59
2022/04/13 05:37:39;;;;;;;9.10;5.93;;;;;;;6.16;66.92;99733.66;5053805;28;20036;-60
2022/04/13 05:40:05;;;;;;;13.20;6.45;;;;;;;6.22;66.59;99745.66;5053609;28;20033;-58
2022/04/13 05:42:31;;;;;;;10.15;6.22;;;;;;;6.24;65.90;99741.09;5054111;28;20584;-61
2022/04/13 05:44:58;;;;;;;12.50;6.38;;;;;;;6.20;65.77;99728.97;5053552;28;20108;-57
2022/04/13 05:47:24;;;;;;;10.63;6.03;;;;;;;5.87;65.89;99673.38;5053322;28;20094;-59
2022/04/13 05:49:50;;;;;;;7.78;5.53;;;;;;;6.33;65.36;99745.84;5053612;28;20477;-61
2022/04/13 05:52:15;;;;;;;8.52;6.00;;;;;;;6.35;65.45;99757.25;5053749;28;20037;-59
2022/04/13 05:54:41;;;;;;;10.18;5.90;;;;;;;6.38;65.38;99754.38;5053290;28;20036;-60
2022/04/13 05:57:07;;;;;;;11.13;5.97;;;;;;;6.34;65.06;99752.88;5053528;28;20484;-60
2022/04/13 05:59:33;;;;;;;8.38;5.57;;;;;;;6.31;65.12;99758.38;5053247;28;20064;-58
2022/04/13 06:01:59;;;;;;;9.35;5.75;;;;;;;6.22;65.26;99750.97;5052683;28;20115;-61
2022/04/13 06:04:25;;;;;;;11.27;5.63;;;;;;;6.27;65.34;99762.19;5053191;28;20487;-59
2022/04/13 06:06:51;;;;;;;10.98;6.13;;;;;;;6.26;65.38;99752.50;5053333;28;20029;-61
2022/04/13 06:09:17;;;;;;;11.00;5.82;;;;;;;6.37;64.93;99762.44;5053227;28;20064;-60
2022/04/13 06:11:42;;;;;;;8.57;5.40;;;;;;;6.37;65.05;99770.41;5053191;28;20029;-60
2022/04/13 06:14:08;;;;;;;9.98;5.90;;;;;;;6.37;65.29;99776.59;5052910;28;20021;-57
2022/04/13 06:16:33;;;;;;;10.10;6.32;;;;;;;6.21;64.79;99743.97;5051944;28;20098;-61
2022/04/13 06:18:59;;;;;;;10.60;5.60;;;;;;;6.47;64.83;99772.38;5053247;28;20039;-60
2022/04/13 06:21:25;;;;;;;8.07;5.63;;;;;;;6.47;64.54;99772.38;5052596;28;20040;-60
2022/04/13 06:23:50;;;;;;;9.32;5.88;;;;;;;6.54;64.64;99778.19;5052888;28;20048;-56
2022/04/13 06:26:17;;;;;;;10.95;5.43;;;;;;;6.62;64.59;99777.69;5052710;28;20111;-55
2022/04/13 06:28:43;;;;;;;9.85;5.30;;;;;;;6.64;64.28;99778.44;5053148;28;20029;-58
2022/04/13 06:31:08;;;;;;;8.30;5.53;;;;;;;6.64;64.26;99769.63;5052581;28;20056;-58
2022/04/13 06:33:34;;;;;;;9.35;5.40;;;;;;;6.49;64.06;99771.44;5052895;28;20345;-57
2022/04/13 06:36:01;;;;;;;10.45;6.30;;;;;;;6.56;64.37;99786.06;5052661;28;20053;-57
2022/04/13 06:38:27;;;;;;;13.98;6.00;;;;;;;6.42;64.60;99758.53;5039792;28;20095;-53
2022/04/13 06:40:52;;;;;;;9.20;6.10;;;;;;;6.61;64.04;99782.13;5049504;28;20032;-59
2022/04/13 06:43:18;;;;;;;8.65;5.50;;;;;;;6.63;63.97;99798.00;5051435;28;20350;-57
2022/04/13 06:45:43;;;;;;;11.90;5.53;;;;;;;6.58;63.90;99800.13;5049807;28;20029;-56
2022/04/13 06:48:09;;;;;;;10.30;5.75;;;;;;;6.55;64.08;99802.97;5052474;28;20063;-58
2022/04/13 06:50:35;;;;;;;13.68;6.18;;;;;;;6.51;64.25;99812.09;5052621;28;20029;-55
2022/04/13 06:53:01;;;;;;;10.55;6.28;;;;;;;6.55;64.48;99802.97;5051114;28;20338;-62
2022/04/13 06:55:27;;;;;;;10.23;5.90;;;;;;;6.55;64.08;99809.13;5051096;28;20484;-54
2022/04/13 06:57:52;;;;;;;8.45;5.85;;;;;;;6.50;64.15;99797.06;5051876;28;20029;-63
2022/04/13 07:00:18;;;;;;;7.93;5.45;;;;;;;6.28;64.21;99777.22;5049685;28;20113;-61
2022/04/13 07:02:43;;;;;;;10.20;5.80;;;;;;;6.46;64.69;99813.25;5048192;28;20041;-56
2022/04/13 07:05:09;;;;;;;9.65;5.80;;;;;;;6.29;64.15;99774.44;5052110;28;20465;-54
2022/04/13 07:07:35;;;;;;;8.45;5.40;;;;;;;6.59;64.08;99817.78;5051269;28;20056;-55
2022/04/13 07:10:01;;;;;;;11.13;5.65;;;;;;;6.64;64.00;99809.53;5051453;28;20455;-59
2022/04/13 07:12:39;;;;;;;13.82;5.90;;;;;;;6.79;63.92;99823.63;5052058;28;20068;-56
2022/04/13 07:15:05;;;;;;;11.02;6.75;;;;;;;6.78;63.76;99819.28;5051319;28;20484;-58
2022/04/13 07:17:31;;;;;;;11.48;5.78;;;;;;;6.91;63.08;99827.31;5052042;28;20108;-53
2022/04/13 07:19:56;;;;;;;8.73;5.38;;;;;;;6.90;62.96;99842.41;5051791;28;20480;-52
2022/04/13 07:22:22;;;;;;;12.25;6.18;;;;;;;6.83;62.96;99819.81;5049473;28;20135;-58
2022/04/13 07:24:47;;;;;;;9.75;5.88;;;;;;;6.90;63.32;99831.75;5031734;28;20033;-53
2022/04/13 07:27:13;;;;;;;11.23;6.43;;;;;;;6.96;63.25;99835.84;5031405;28;20057;-55
2022/04/13 07:29:38;;;;;;;8.88;5.82;;;;;;;7.02;62.95;99836.28;5031557;28;20089;-59
2022/04/13 07:32:06;;;;;;;11.27;6.53;;;;;;;7.07;63.04;99843.13;5031470;28;20041;-58
2022/04/13 07:34:32;;;;;;;9.38;6.35;;;;;;;7.13;63.24;99840.91;5044538;28;20098;-54
2022/04/13 07:36:58;;;;;;;10.75;6.60;;;;;;;7.07;62.35;99835.13;5050385;28;20032;-56
2022/04/13 07:39:23;;;;;;;12.10;6.25;;;;;;;7.12;62.89;99831.22;5051258;28;20029;-52
2022/04/13 07:41:49;;;;;;;12.45;6.10;;;;;;;7.23;62.61;99837.63;5049848;28;20029;-55
2022/04/13 07:44:14;;;;;;;10.40;5.57;;;;;;;7.36;62.23;99843.00;5050756;28;20036;-56
2022/04/13 07:46:40;;;;;;;10.90;6.47;;;;;;;7.40;62.17;99842.69;5051920;28;20028;-56
2022/04/13 07:49:06;;;;;;;10.13;5.78;;;;;;;7.49;61.47;99848.34;5051246;28;20033;-55
2022/04/13 07:51:33;;;;;;;10.15;6.35;;;;;;;7.58;61.42;99850.38;5050868;28;20045;-56
2022/04/13 07:54:02;;;;;;;11.90;5.90;;;;;;;7.57;61.30;99857.53;5038920;28;20097;-52
2022/04/13 07:56:28;;;;;;;10.73;6.28;;;;;;;7.41;61.46;99849.72;5030198;28;20045;-52
2022/04/13 07:58:54;;;;;;;11.60;7.03;;;;;;;7.37;61.99;99850.88;5030635;28;20469;-55
2022/04/13 08:01:19;;;;;;;17.05;7.88;;;;;;;7.46;61.81;99849.41;5030841;28;20033;-58
2022/04/13 08:03:45;;;;;;;12.70;7.07;;;;;;;7.60;61.48;99849.31;5037582;28;20583;-57
2022/04/13 08:06:11;;;;;;;12.35;7.50;;;;;;;7.73;61.27;99856.50;5034697;28;20029;-58
2022/04/13 08:08:38;;;;;;;11.90;7.55;;;;;;;7.88;60.82;99849.25;5037516;28;20040;-58
2022/04/13 08:11:04;;;;;;;10.85;7.10;;;;;;;8.07;60.42;99848.81;5050881;28;20120;-53
2022/04/13 08:13:30;;;;;;;12.93;6.88;;;;;;;8.06;59.77;99841.78;5050870;28;20082;-51
2022/04/13 08:15:56;;;;;;;10.57;6.35;;;;;;;7.88;60.20;99860.75;5050951;28;20512;-53
2022/04/13 08:18:21;;;;;;;9.40;5.95;;;;;;;7.70;60.60;99856.69;5044407;28;20033;-58
2022/04/13 08:20:47;;;;;;;12.48;7.72;;;;;;;7.46;61.26;99849.41;5030603;28;20040;-54
2022/04/13 08:23:12;;;;;;;10.50;6.53;;;;;;;7.40;62.16;99861.34;5034051;28;20064;-56
2022/04/13 08:25:37;;;;;;;11.35;6.82;;;;;;;7.37;61.25;99823.38;5050985;28;20117;-56
2022/04/13 08:28:03;;;;;;;8.57;5.95;;;;;;;7.85;61.21;99865.47;5050358;28;20090;-54
2022/04/13 08:30:29;;;;;;;11.07;6.35;;;;;;;8.15;60.26;99859.78;5050553;28;20029;-58
2022/04/13 08:32:54;;;;;;;12.07;7.07;;;;;;;8.11;59.39;99828.97;5050770;28;20037;-56
2022/04/13 08:35:20;;;;;;;10.38;6.75;;;;;;;8.44;58.70;99858.72;5051071;28;20043;-57
2022/04/13 08:37:45;;;;;;;14.35;6.72;;;;;;;8.42;58.82;99856.13;5050774;28;20028;-53
2022/04/13 08:40:12;;;;;;;11.63;6.90;;;;;;;8.35;59.26;99859.38;5049600;28;20029;-57
2022/04/13 08:42:52;;;;;;;12.38;6.75;;;;;;;8.54;59.56;99861.59;5050686;28;20068;-56
2022/04/13 08:45:28;;;;;;;12.07;7.45;;;;;;;8.52;59.36;99864.38;5050908;28;20025;-56
2022/04/13 08:47:56;;;;;;;11.98;6.22;;;;;;;8.25;59.37;99864.50;5049178;28;20029;-56
2022/04/13 08:50:30;;;;;;;12.57;7.00;;;;;;;7.99;60.70;99888.50;5050651;28;20036;-59
2022/04/13 08:53:02;;;;;;;12.57;6.63;;;;;;;7.77;61.44;99873.97;5050095;28;20037;-55
2022/04/13 08:55:29;;;;;;;11.55;6.47;;;;;;;7.64;61.60;99875.75;5049469;28;20137;-56
2022/04/13 08:58:19;;;;;;;11.52;5.90;;;;;;;7.67;61.94;99873.75;5050186;28;20079;-61
2022/04/13 09:00:49;;;;;;;11.23;6.28;;;;;;;7.49;61.87;99854.53;5050452;28;20048;-57
2022/04/13 09:03:37;;;;;;;11.88;5.78;;;;;;;7.67;61.61;99864.88;5050220;28;20389;-56
2022/04/13 09:06:05;;;;;;;13.75;6.18;;;;;;;7.67;61.41;99878.22;5050112;28;20080;-54
2022/04/13 09:08:37;;;;;;;9.90;5.53;;;;;;;7.68;61.40;99885.25;5057233;28;20154;-55
2022/04/13 09:11:04;;;;;;;10.90;5.97;;;;;;;7.43;61.72;99849.59;5052777;28;20107;-57
2022/04/13 09:13:30;;;;;;;14.52;6.70;;;;;;;7.67;61.42;99886.19;5054200;28;20029;-57
2022/04/13 09:15:57;;;;;;;16.13;7.38;;;;;;;7.62;61.40;99889.19;5053862;28;20457;-54
2022/04/13 09:18:23;;;;;;;12.55;6.50;;;;;;;7.49;61.75;99886.50;5054247;28;20120;-58
2022/04/13 09:20:48;;;;;;;13.52;6.25;;;;;;;7.40;61.91;99890.63;5047762;28;20544;-56
2022/04/13 09:23:15;;;;;;;9.90;6.00;;;;;;;7.44;62.27;99893.94;5053010;28;20107;-59
2022/04/13 09:25:41;;;;;;;10.82;6.05;;;;;;;7.29;62.26;99855.84;5054016;28;20114;-54
2022/04/13 09:28:07;;;;;;;12.85;6.80;;;;;;;7.59;61.96;99892.03;5053684;28;20056;-54
2022/04/13 09:30:33;;;;;;;15.52;6.97;;;;;;;7.63;61.60;99890.03;5043600;28;20107;-51
2022/04/13 09:33:01;;;;;;;14.40;6.45;;;;;;;7.51;61.87;99900.56;5045013;28;20048;-53
2022/04/13 09:35:29;;;;;;;10.93;6.13;;;;;;;7.43;61.96;99893.09;5052870;28;20151;-52
2022/04/13 09:37:55;;;;;;;11.43;6.22;;;;;;;7.41;62.25;99899.47;5037245;28;20029;-54
2022/04/13 09:40:31;;;;;;;14.50;7.03;;;;;;;7.40;62.65;99903.97;5049577;28;20040;-53
2022/04/13 09:43:07;;;;;;;9.45;6.43;;;;;;;7.46;62.96;99894.69;5053846;28;20051;-55
2022/04/13 09:45:46;;;;;;;13.45;6.78;;;;;;;7.58;62.78;99899.19;5053504;28;20469;-57
2022/04/13 09:48:14;;;;;;;13.27;6.55;;;;;;;7.60;61.74;99899.94;5053512;28;20032;-55
2022/04/13 09:50:41;;;;;;;13.43;7.22;;;;;;;7.64;61.95;99900.59;5054000;28;20464;-56
2022/04/13 09:53:08;;;;;;;11.52;7.00;;;;;;;7.64;61.39;99900.59;5053103;28;20143;-55
2022/04/13 09:55:37;;;;;;;8.88;6.07;;;;;;;7.63;61.83;99911.34;5052750;28;20061;-59
2022/04/13 09:58:10;;;;;;;14.02;6.57;;;;;;;7.61;62.12;99907.00;5053835;28;20136;-58
2022/04/13 10:00:36;;;;;;;9.43;6.35;;;;;;;7.66;61.93;99903.16;5053383;28;20037;-56
2022/04/13 10:03:13;;;;;;;12.50;6.47;;;;;;;7.91;61.57;99899.69;5053301;28;20108;-56
2022/04/13 10:05:45;;;;;;;11.60;6.55;;;;;;;8.09;60.85;99899.41;5052824;28;20032;-54
2022/04/13 10:08:13;;;;;;;11.52;6.75;;;;;;;8.33;59.99;99913.69;5053031;28;20389;-55
2022/04/13 10:10:45;;;;;;;13.48;7.43;;;;;;;8.55;59.39;99914.00;5053193;28;20033;-55
2022/04/13 10:13:12;;;;;;;13.18;8.30;;;;;;;8.42;59.21;99880.16;5053201;28;20610;-56
2022/04/13 10:15:38;;;;;;;13.35;8.50;;;;;;;8.56;59.08;99905.03;5053159;28;20482;-54
2022/04/13 10:18:05;;;;;;;19.83;8.00;;;;;;;8.61;59.16;99910.91;5053312;28;20029;-57
2022/04/13 10:20:43;;;;;;;12.95;7.25;;;;;;;8.87;59.19;99905.50;5052003;28;20037;-60
2022/04/13 10:23:10;;;;;;;12.70;7.35;;;;;;;8.87;58.10;99895.69;5051677;28;20049;-58
2022/04/13 10:25:35;;;;;;;14.55;6.82;;;;;;;8.85;58.51;99897.63;5052518;28;20108;-56
2022/04/13 10:28:01;;;;;;;12.57;6.93;;;;;;;8.82;58.48;99902.31;5053219;28;20163;-57
2022/04/13 10:30:29;;;;;;;12.27;7.50;;;;;;;8.78;58.72;99912.34;5052503;28;20810;-57
2022/04/13 10:33:05;;;;;;;12.85;7.07;;;;;;;8.79;58.87;99910.56;5052266;28;20187;-52
2022/04/13 10:35:34;;;;;;;15.32;8.48;;;;;;;8.62;58.80;99896.59;5051448;28;20066;-58
2022/04/13 10:38:00;;;;;;;19.00;8.52;;;;;;;8.60;58.99;99898.53;5052309;28;20029;-54
2022/04/13 10:40:29;;;;;;;14.32;7.97;;;;;;;8.62;59.18;99917.94;5052377;28;20025;-55
2022/04/13 10:42:58;;;;;;;21.20;7.78;;;;;;;8.58;59.15;99919.13;5051409;28;20043;-59
2022/04/13 10:45:27;;;;;;;11.68;7.68;;;;;;;8.47;59.38;99920.72;5052186;28;20093;-57
2022/04/13 10:48:17;;;;;;;15.77;7.63;;;;;;;8.32;60.25;99924.44;5032396;28;20470;-58
2022/04/13 10:50:45;;;;;;;13.52;7.93;;;;;;;8.17;60.66;99932.53;5052705;28;20040;-55
2022/04/13 10:53:34;;;;;;;13.02;7.78;;;;;;;8.24;61.10;99932.16;5052702;28;20068;-55
2022/04/13 10:56:04;;;;;;;11.23;7.53;;;;;;;8.42;60.54;99933.50;5052032;28;20082;-58
2022/04/13 10:59:14;;;;;;;14.35;8.23;;;;;;;8.76;59.67;99925.84;5052323;28;20430;-60
2022/04/13 11:01:51;;;;;;;13.35;7.63;;;;;;;8.80;59.08;99936.28;5051591;28;20154;-57
2022/04/13 11:04:16;;;;;;;11.45;8.32;;;;;;;8.38;58.85;99873.31;5052729;28;20123;-60
2022/04/13 11:06:43;;;;;;;15.57;8.73;;;;;;;8.41;59.32;99912.28;5052351;28;20337;-58
2022/04/13 11:09:16;;;;;;;13.63;8.07;;;;;;;8.45;59.86;99929.78;5052379;28;20086;-60
2022/04/13 11:11:43;;;;;;;13.13;8.82;;;;;;;8.27;60.10;99930.09;5051736;28;20029;-56
2022/04/13 11:14:18;;;;;;;18.05;8.43;;;;;;;8.25;60.39;99921.34;5052050;28;20032;-58
2022/04/13 11:16:44;;;;;;;15.40;7.93;;;;;;;8.04;60.69;99934.38;5052085;28;20071;-55
2022/04/13 11:19:09;;;;;;;11.77;7.65;;;;;;;7.88;60.90;99921.22;5051519;28;20041;-56
2022/04/13 11:21:55;;;;;;;13.60;8.32;;;;;;;7.90;61.78;99937.97;5041873;28;20049;-58
2022/04/13 11:24:40;;;;;;;18.38;8.38;;;;;;;7.94;61.94;99938.59;5032258;28;20025;-58
2022/04/13 11:27:08;;;;;;;11.60;7.78;;;;;;;7.94;61.49;99943.94;5031479;28;20183;-60
2022/04/13 11:29:34;;;;;;;11.85;7.35;;;;;;;7.99;61.44;99941.84;5032329;28;20075;-57
2022/04/13 11:32:00;;;;;;;11.32;6.75;;;;;;;8.04;60.70;99940.53;5031077;28;20083;-58
2022/04/13 11:35:02;;;;;;;12.52;6.28;;;;;;;8.08;60.35;99951.84;5031834;28;20081;-60
2022/04/13 11:37:34;;;;;;;9.75;6.13;;;;;;;7.97;60.98;99949.09;5041145;28;20048;-60
2022/04/13 11:40:05;;;;;;;9.18;5.53;;;;;;;7.78;60.97;99955.66;5034035;28;20047;-57
2022/04/13 11:42:40;;;;;;;8.00;5.68;;;;;;;7.70;61.71;99944.63;5037843;28;20025;-55